sensor_id;sensor_type;location;lat;lon;timestamp;P1;durP1;ratioP1;P2;durP2;ratioP2
6149;SDS011;3106;42.670;23.318;2023-06-10T00:01:44;24.87;;;15.90;;
6149;SDS011;3106;42.670;23.318;2023-06-10T00:04:12;21.20;;;15.83;;
6149;SDS011;3106;42.670;23.318;2023-06-10T00:06:39;24.63;;;16.83;;
6149;SDS011;3106;42.670;23.318;2023-06-10T00:09:06;21.23;;;16.57;;
6149;SDS011;3106;42.670;23.318;2023-06-10T00:11:35;18.50;;;13.57;;
6149;SDS011;3106;42.670;23.318;2023-06-10T00:14:02;18.53;;;13.17;;
6149;SDS011;3106;42.670;23.318;2023-06-10T00:16:29;25.47;;;16.50;;
6149;SDS011;3106;42.670;23.318;2023-06-10T00:18:58;34.77;;;25.07;;
6149;SDS011;3106;42.670;23.318;2023-06-10T00:21:26;43.20;;;27.70;;
6149;SDS011;3106;42.670;23.318;2023-06-10T00:23:53;37.87;;;23.70;;
6149;SDS011;3106;42.670;23.318;2023-06-10T00:26:20;37.77;;;23.43;;
6149;SDS011;3106;42.670;23.318;2023-06-10T00:28:47;34.67;;;19.57;;
6149;SDS011;3106;42.670;23.318;2023-06-10T00:31:14;23.53;;;16.50;;
6149;SDS011;3106;42.670;23.318;2023-06-10T00:33:41;28.53;;;18.23;;
6149;SDS011;3106;42.670;23.318;2023-06-10T00:36:09;24.03;;;16.53;;
6149;SDS011;3106;42.670;23.318;2023-06-10T00:38:35;18.07;;;12.27;;
6149;SDS011;3106;42.670;23.318;2023-06-10T00:41:02;16.07;;;11.50;;
6149;SDS011;3106;42.670;23.318;2023-06-10T00:43:29;18.63;;;10.50;;
6149;SDS011;3106;42.670;23.318;2023-06-10T00:45:56;14.00;;;9.73;;
6149;SDS011;3106;42.670;23.318;2023-06-10T00:48:22;15.93;;;10.27;;
6149;SDS011;3106;42.670;23.318;2023-06-10T00:50:50;15.27;;;8.70;;
6149;SDS011;3106;42.670;23.318;2023-06-10T00:53:18;20.00;;;9.77;;
6149;SDS011;3106;42.670;23.318;2023-06-10T00:55:45;13.20;;;9.17;;
6149;SDS011;3106;42.670;23.318;2023-06-10T00:58:12;18.17;;;9.23;;
6149;SDS011;3106;42.670;23.318;2023-06-10T01:00:40;18.10;;;8.90;;
6149;SDS011;3106;42.670;23.318;2023-06-10T01:03:07;19.90;;;9.00;;
6149;SDS011;3106;42.670;23.318;2023-06-10T01:05:34;20.47;;;9.83;;
6149;SDS011;3106;42.670;23.318;2023-06-10T01:08:03;14.07;;;9.17;;
6149;SDS011;3106;42.670;23.318;2023-06-10T01:10:38;11.70;;;8.70;;
6149;SDS011;3106;42.670;23.318;2023-06-10T01:13:10;13.30;;;9.33;;
6149;SDS011;3106;42.670;23.318;2023-06-10T01:15:38;10.87;;;8.53;;
6149;SDS011;3106;42.670;23.318;2023-06-10T01:18:05;10.37;;;8.20;;
6149;SDS011;3106;42.670;23.318;2023-06-10T01:20:35;15.43;;;8.40;;
6149;SDS011;3106;42.670;23.318;2023-06-10T01:23:06;16.57;;;9.00;;
6149;SDS011;3106;42.670;23.318;2023-06-10T01:25:35;16.10;;;8.77;;
6149;SDS011;3106;42.670;23.318;2023-06-10T01:28:04;15.30;;;10.13;;
6149;SDS011;3106;42.670;23.318;2023-06-10T01:30:36;12.03;;;8.77;;
6149;SDS011;3106;42.670;23.318;2023-06-10T01:33:09;14.07;;;8.70;;
6149;SDS011;3106;42.670;23.318;2023-06-10T01:35:37;16.40;;;9.50;;
6149;SDS011;3106;42.670;23.318;2023-06-10T01:38:06;17.40;;;9.80;;
6149;SDS011;3106;42.670;23.318;2023-06-10T01:40:33;12.63;;;9.80;;
6149;SDS011;3106;42.670;23.318;2023-06-10T01:43:00;16.50;;;9.37;;
6149;SDS011;3106;42.670;23.318;2023-06-10T01:45:27;14.77;;;9.67;;
6149;SDS011;3106;42.670;23.318;2023-06-10T01:47:54;18.17;;;9.40;;
6149;SDS011;3106;42.670;23.318;2023-06-10T01:50:21;16.20;;;9.80;;
6149;SDS011;3106;42.670;23.318;2023-06-10T01:52:48;12.23;;;9.20;;
6149;SDS011;3106;42.670;23.318;2023-06-10T01:55:16;19.93;;;9.97;;
6149;SDS011;3106;42.670;23.318;2023-06-10T01:57:43;16.67;;;11.17;;
6149;SDS011;3106;42.670;23.318;2023-06-10T02:00:10;13.30;;;8.70;;
6149;SDS011;3106;42.670;23.318;2023-06-10T02:02:38;11.17;;;8.93;;
6149;SDS011;3106;42.670;23.318;2023-06-10T02:05:05;14.87;;;8.77;;
6149;SDS011;3106;42.670;23.318;2023-06-10T02:07:32;12.60;;;8.43;;
6149;SDS011;3106;42.670;23.318;2023-06-10T02:09:58;13.10;;;9.23;;
6149;SDS011;3106;42.670;23.318;2023-06-10T02:12:27;12.83;;;7.60;;
6149;SDS011;3106;42.670;23.318;2023-06-10T02:14:53;14.20;;;8.83;;
6149;SDS011;3106;42.670;23.318;2023-06-10T02:17:20;12.50;;;8.60;;
6149;SDS011;3106;42.670;23.318;2023-06-10T02:19:48;14.90;;;9.30;;
6149;SDS011;3106;42.670;23.318;2023-06-10T02:22:17;11.07;;;8.20;;
6149;SDS011;3106;42.670;23.318;2023-06-10T02:24:45;10.90;;;8.47;;
6149;SDS011;3106;42.670;23.318;2023-06-10T02:27:12;12.13;;;8.47;;
6149;SDS011;3106;42.670;23.318;2023-06-10T02:29:40;14.77;;;8.07;;
6149;SDS011;3106;42.670;23.318;2023-06-10T02:32:08;12.80;;;8.60;;
6149;SDS011;3106;42.670;23.318;2023-06-10T02:34:36;12.23;;;8.13;;
6149;SDS011;3106;42.670;23.318;2023-06-10T02:37:03;12.43;;;8.20;;
6149;SDS011;3106;42.670;23.318;2023-06-10T02:39:30;15.00;;;8.07;;
6149;SDS011;3106;42.670;23.318;2023-06-10T02:41:57;11.80;;;8.60;;
6149;SDS011;3106;42.670;23.318;2023-06-10T02:44:24;13.10;;;8.73;;
6149;SDS011;3106;42.670;23.318;2023-06-10T02:46:52;12.33;;;9.17;;
6149;SDS011;3106;42.670;23.318;2023-06-10T02:49:19;14.03;;;9.17;;
6149;SDS011;3106;42.670;23.318;2023-06-10T02:51:45;12.30;;;9.43;;
6149;SDS011;3106;42.670;23.318;2023-06-10T02:54:12;16.20;;;9.30;;
6149;SDS011;3106;42.670;23.318;2023-06-10T02:56:39;14.20;;;9.40;;
6149;SDS011;3106;42.670;23.318;2023-06-10T02:59:06;18.10;;;9.77;;
6149;SDS011;3106;42.670;23.318;2023-06-10T03:01:33;16.20;;;9.50;;
6149;SDS011;3106;42.670;23.318;2023-06-10T03:04:03;14.40;;;9.20;;
6149;SDS011;3106;42.670;23.318;2023-06-10T03:06:30;15.07;;;9.90;;
6149;SDS011;3106;42.670;23.318;2023-06-10T03:08:58;16.23;;;9.83;;
6149;SDS011;3106;42.670;23.318;2023-06-10T03:11:25;26.60;;;9.90;;
6149;SDS011;3106;42.670;23.318;2023-06-10T03:13:52;15.57;;;8.97;;
6149;SDS011;3106;42.670;23.318;2023-06-10T03:16:20;15.83;;;10.10;;
6149;SDS011;3106;42.670;23.318;2023-06-10T03:18:47;13.23;;;9.80;;
6149;SDS011;3106;42.670;23.318;2023-06-10T03:21:16;12.50;;;9.40;;
6149;SDS011;3106;42.670;23.318;2023-06-10T03:23:43;15.40;;;10.90;;
6149;SDS011;3106;42.670;23.318;2023-06-10T03:26:10;16.57;;;11.13;;
6149;SDS011;3106;42.670;23.318;2023-06-10T03:28:39;14.23;;;10.33;;
6149;SDS011;3106;42.670;23.318;2023-06-10T03:31:06;15.70;;;9.47;;
6149;SDS011;3106;42.670;23.318;2023-06-10T03:33:32;18.67;;;11.20;;
6149;SDS011;3106;42.670;23.318;2023-06-10T03:36:01;18.90;;;10.87;;
6149;SDS011;3106;42.670;23.318;2023-06-10T03:38:29;20.60;;;12.43;;
6149;SDS011;3106;42.670;23.318;2023-06-10T03:40:55;16.63;;;11.93;;
6149;SDS011;3106;42.670;23.318;2023-06-10T03:43:22;20.93;;;13.27;;
6149;SDS011;3106;42.670;23.318;2023-06-10T03:45:49;25.70;;;13.87;;
6149;SDS011;3106;42.670;23.318;2023-06-10T03:48:16;27.03;;;13.30;;
6149;SDS011;3106;42.670;23.318;2023-06-10T03:50:43;33.63;;;12.40;;
6149;SDS011;3106;42.670;23.318;2023-06-10T03:53:09;32.60;;;12.43;;
6149;SDS011;3106;42.670;23.318;2023-06-10T03:55:37;15.70;;;11.30;;
6149;SDS011;3106;42.670;23.318;2023-06-10T03:58:04;14.40;;;10.20;;
6149;SDS011;3106;42.670;23.318;2023-06-10T04:00:31;25.33;;;11.03;;
6149;SDS011;3106;42.670;23.318;2023-06-10T04:03:06;22.47;;;10.70;;
6149;SDS011;3106;42.670;23.318;2023-06-10T04:05:34;17.07;;;10.80;;
6149;SDS011;3106;42.670;23.318;2023-06-10T04:08:01;15.67;;;10.07;;
6149;SDS011;3106;42.670;23.318;2023-06-10T04:10:28;14.47;;;10.07;;
6149;SDS011;3106;42.670;23.318;2023-06-10T04:12:56;16.20;;;10.73;;
6149;SDS011;3106;42.670;23.318;2023-06-10T04:15:23;13.23;;;9.90;;
6149;SDS011;3106;42.670;23.318;2023-06-10T04:17:50;17.47;;;11.30;;
6149;SDS011;3106;42.670;23.318;2023-06-10T04:20:17;17.57;;;11.57;;
6149;SDS011;3106;42.670;23.318;2023-06-10T04:22:44;26.20;;;12.03;;
6149;SDS011;3106;42.670;23.318;2023-06-10T04:25:11;17.63;;;10.83;;
6149;SDS011;3106;42.670;23.318;2023-06-10T04:27:38;16.77;;;11.80;;
6149;SDS011;3106;42.670;23.318;2023-06-10T04:30:06;19.30;;;11.63;;
6149;SDS011;3106;42.670;23.318;2023-06-10T04:32:34;21.80;;;12.10;;
6149;SDS011;3106;42.670;23.318;2023-06-10T04:35:00;15.30;;;11.63;;
6149;SDS011;3106;42.670;23.318;2023-06-10T04:37:27;15.10;;;11.73;;
6149;SDS011;3106;42.670;23.318;2023-06-10T04:39:54;22.57;;;11.00;;
6149;SDS011;3106;42.670;23.318;2023-06-10T04:42:21;16.70;;;12.10;;
6149;SDS011;3106;42.670;23.318;2023-06-10T04:44:48;15.93;;;11.70;;
6149;SDS011;3106;42.670;23.318;2023-06-10T04:47:16;16.83;;;12.07;;
6149;SDS011;3106;42.670;23.318;2023-06-10T04:49:43;20.40;;;11.53;;
6149;SDS011;3106;42.670;23.318;2023-06-10T04:52:10;19.10;;;12.40;;
6149;SDS011;3106;42.670;23.318;2023-06-10T04:54:37;16.07;;;11.40;;
6149;SDS011;3106;42.670;23.318;2023-06-10T04:57:04;16.93;;;11.70;;
6149;SDS011;3106;42.670;23.318;2023-06-10T04:59:33;19.63;;;11.87;;
6149;SDS011;3106;42.670;23.318;2023-06-10T05:02:02;21.97;;;12.30;;
6149;SDS011;3106;42.670;23.318;2023-06-10T05:04:31;17.97;;;10.70;;
6149;SDS011;3106;42.670;23.318;2023-06-10T05:06:57;15.93;;;11.53;;
6149;SDS011;3106;42.670;23.318;2023-06-10T05:09:24;22.00;;;12.30;;
6149;SDS011;3106;42.670;23.318;2023-06-10T05:11:52;21.50;;;11.90;;
6149;SDS011;3106;42.670;23.318;2023-06-10T05:14:19;20.83;;;12.63;;
6149;SDS011;3106;42.670;23.318;2023-06-10T05:16:46;21.70;;;11.90;;
6149;SDS011;3106;42.670;23.318;2023-06-10T05:19:13;20.57;;;12.23;;
6149;SDS011;3106;42.670;23.318;2023-06-10T05:21:43;19.20;;;12.83;;
6149;SDS011;3106;42.670;23.318;2023-06-10T05:24:10;20.20;;;14.43;;
6149;SDS011;3106;42.670;23.318;2023-06-10T05:26:37;18.50;;;12.70;;
6149;SDS011;3106;42.670;23.318;2023-06-10T05:29:04;16.23;;;12.40;;
6149;SDS011;3106;42.670;23.318;2023-06-10T05:31:31;26.23;;;12.43;;
6149;SDS011;3106;42.670;23.318;2023-06-10T05:33:58;26.50;;;12.30;;
6149;SDS011;3106;42.670;23.318;2023-06-10T05:36:24;20.00;;;13.43;;
6149;SDS011;3106;42.670;23.318;2023-06-10T05:38:54;15.50;;;11.57;;
6149;SDS011;3106;42.670;23.318;2023-06-10T05:41:20;22.63;;;12.57;;
6149;SDS011;3106;42.670;23.318;2023-06-10T05:43:48;19.40;;;11.97;;
6149;SDS011;3106;42.670;23.318;2023-06-10T05:46:15;28.10;;;13.83;;
6149;SDS011;3106;42.670;23.318;2023-06-10T05:48:41;22.97;;;13.60;;
6149;SDS011;3106;42.670;23.318;2023-06-10T05:51:09;32.03;;;13.97;;
6149;SDS011;3106;42.670;23.318;2023-06-10T05:53:36;21.20;;;13.67;;
6149;SDS011;3106;42.670;23.318;2023-06-10T05:56:05;16.70;;;12.07;;
6149;SDS011;3106;42.670;23.318;2023-06-10T05:58:31;26.10;;;12.20;;
6149;SDS011;3106;42.670;23.318;2023-06-10T06:00:58;16.20;;;11.30;;
6149;SDS011;3106;42.670;23.318;2023-06-10T06:03:26;23.13;;;13.37;;
6149;SDS011;3106;42.670;23.318;2023-06-10T06:05:53;16.60;;;11.70;;
6149;SDS011;3106;42.670;23.318;2023-06-10T06:08:20;26.23;;;12.57;;
6149;SDS011;3106;42.670;23.318;2023-06-10T06:10:47;28.70;;;12.30;;
6149;SDS011;3106;42.670;23.318;2023-06-10T06:13:15;21.40;;;11.70;;
6149;SDS011;3106;42.670;23.318;2023-06-10T06:15:42;17.83;;;11.27;;
6149;SDS011;3106;42.670;23.318;2023-06-10T06:18:08;20.30;;;12.47;;
6149;SDS011;3106;42.670;23.318;2023-06-10T06:20:35;17.40;;;12.17;;
6149;SDS011;3106;42.670;23.318;2023-06-10T06:23:02;16.43;;;10.63;;
6149;SDS011;3106;42.670;23.318;2023-06-10T06:25:29;18.00;;;10.87;;
6149;SDS011;3106;42.670;23.318;2023-06-10T06:27:56;30.93;;;12.63;;
6149;SDS011;3106;42.670;23.318;2023-06-10T06:30:24;36.00;;;20.40;;
6149;SDS011;3106;42.670;23.318;2023-06-10T06:32:50;13.50;;;9.00;;
6149;SDS011;3106;42.670;23.318;2023-06-10T06:35:17;11.70;;;9.13;;
6149;SDS011;3106;42.670;23.318;2023-06-10T06:37:44;11.73;;;8.70;;
6149;SDS011;3106;42.670;23.318;2023-06-10T06:40:11;12.00;;;8.00;;
6149;SDS011;3106;42.670;23.318;2023-06-10T06:42:39;13.33;;;7.50;;
6149;SDS011;3106;42.670;23.318;2023-06-10T06:45:06;17.40;;;7.63;;
6149;SDS011;3106;42.670;23.318;2023-06-10T06:47:34;11.50;;;7.60;;
6149;SDS011;3106;42.670;23.318;2023-06-10T06:50:01;15.20;;;7.83;;
6149;SDS011;3106;42.670;23.318;2023-06-10T06:52:28;8.10;;;7.03;;
6149;SDS011;3106;42.670;23.318;2023-06-10T06:54:55;24.73;;;7.70;;
6149;SDS011;3106;42.670;23.318;2023-06-10T06:57:21;13.97;;;8.27;;
6149;SDS011;3106;42.670;23.318;2023-06-10T06:59:49;14.17;;;8.53;;
6149;SDS011;3106;42.670;23.318;2023-06-10T07:02:16;14.97;;;7.60;;
6149;SDS011;3106;42.670;23.318;2023-06-10T07:04:45;15.33;;;7.93;;
6149;SDS011;3106;42.670;23.318;2023-06-10T07:07:14;23.63;;;8.70;;
6149;SDS011;3106;42.670;23.318;2023-06-10T07:09:40;11.90;;;8.20;;
6149;SDS011;3106;42.670;23.318;2023-06-10T07:12:08;15.23;;;8.63;;
6149;SDS011;3106;42.670;23.318;2023-06-10T07:14:35;14.10;;;8.00;;
6149;SDS011;3106;42.670;23.318;2023-06-10T07:17:02;12.77;;;7.70;;
6149;SDS011;3106;42.670;23.318;2023-06-10T07:19:29;9.70;;;7.90;;
6149;SDS011;3106;42.670;23.318;2023-06-10T07:21:57;8.37;;;6.70;;
6149;SDS011;3106;42.670;23.318;2023-06-10T07:24:23;12.10;;;7.73;;
6149;SDS011;3106;42.670;23.318;2023-06-10T07:26:50;15.17;;;8.80;;
6149;SDS011;3106;42.670;23.318;2023-06-10T07:29:17;13.83;;;7.97;;
6149;SDS011;3106;42.670;23.318;2023-06-10T07:31:43;13.60;;;7.13;;
6149;SDS011;3106;42.670;23.318;2023-06-10T07:34:10;8.70;;;7.23;;
6149;SDS011;3106;42.670;23.318;2023-06-10T07:36:37;11.00;;;7.37;;
6149;SDS011;3106;42.670;23.318;2023-06-10T07:39:05;29.03;;;7.90;;
6149;SDS011;3106;42.670;23.318;2023-06-10T07:41:32;13.33;;;6.90;;
6149;SDS011;3106;42.670;23.318;2023-06-10T07:44:00;14.57;;;8.47;;
6149;SDS011;3106;42.670;23.318;2023-06-10T07:46:27;16.63;;;7.87;;
6149;SDS011;3106;42.670;23.318;2023-06-10T07:48:54;12.13;;;6.87;;
6149;SDS011;3106;42.670;23.318;2023-06-10T07:51:21;23.37;;;6.67;;
6149;SDS011;3106;42.670;23.318;2023-06-10T07:53:48;9.90;;;6.20;;
6149;SDS011;3106;42.670;23.318;2023-06-10T07:56:16;12.30;;;7.10;;
6149;SDS011;3106;42.670;23.318;2023-06-10T07:58:43;14.57;;;7.20;;
6149;SDS011;3106;42.670;23.318;2023-06-10T08:01:09;42.17;;;8.47;;
6149;SDS011;3106;42.670;23.318;2023-06-10T08:03:36;12.40;;;7.20;;
6149;SDS011;3106;42.670;23.318;2023-06-10T08:06:03;21.30;;;7.40;;
6149;SDS011;3106;42.670;23.318;2023-06-10T08:08:30;13.40;;;5.70;;
6149;SDS011;3106;42.670;23.318;2023-06-10T08:10:57;19.43;;;6.43;;
6149;SDS011;3106;42.670;23.318;2023-06-10T08:13:26;16.70;;;6.87;;
6149;SDS011;3106;42.670;23.318;2023-06-10T08:15:52;13.77;;;6.90;;
6149;SDS011;3106;42.670;23.318;2023-06-10T08:18:21;16.80;;;6.07;;
6149;SDS011;3106;42.670;23.318;2023-06-10T08:20:47;10.07;;;5.60;;
6149;SDS011;3106;42.670;23.318;2023-06-10T08:23:15;7.77;;;5.67;;
6149;SDS011;3106;42.670;23.318;2023-06-10T08:25:41;6.27;;;5.07;;
6149;SDS011;3106;42.670;23.318;2023-06-10T08:28:08;11.83;;;5.10;;
6149;SDS011;3106;42.670;23.318;2023-06-10T08:30:36;13.47;;;5.07;;
6149;SDS011;3106;42.670;23.318;2023-06-10T08:33:03;6.77;;;5.27;;
6149;SDS011;3106;42.670;23.318;2023-06-10T08:35:30;17.73;;;5.50;;
6149;SDS011;3106;42.670;23.318;2023-06-10T08:37:57;12.77;;;5.40;;
6149;SDS011;3106;42.670;23.318;2023-06-10T08:40:23;10.67;;;6.37;;
6149;SDS011;3106;42.670;23.318;2023-06-10T08:42:52;13.30;;;6.40;;
6149;SDS011;3106;42.670;23.318;2023-06-10T08:45:27;217.17;;;13.63;;
6149;SDS011;3106;42.670;23.318;2023-06-10T08:47:58;11.60;;;5.83;;
6149;SDS011;3106;42.670;23.318;2023-06-10T08:50:26;10.00;;;5.30;;
6149;SDS011;3106;42.670;23.318;2023-06-10T08:52:57;10.73;;;5.30;;
6149;SDS011;3106;42.670;23.318;2023-06-10T08:55:26;12.20;;;5.20;;
6149;SDS011;3106;42.670;23.318;2023-06-10T08:57:56;6.27;;;4.90;;
6149;SDS011;3106;42.670;23.318;2023-06-10T09:00:23;6.97;;;4.63;;
6149;SDS011;3106;42.670;23.318;2023-06-10T09:02:52;12.00;;;4.40;;
6149;SDS011;3106;42.670;23.318;2023-06-10T09:05:21;10.30;;;5.80;;
6149;SDS011;3106;42.670;23.318;2023-06-10T09:07:48;20.57;;;5.57;;
6149;SDS011;3106;42.670;23.318;2023-06-10T09:10:17;6.60;;;4.93;;
6149;SDS011;3106;42.670;23.318;2023-06-10T09:12:44;7.17;;;4.03;;
6149;SDS011;3106;42.670;23.318;2023-06-10T09:15:11;5.13;;;4.17;;
6149;SDS011;3106;42.670;23.318;2023-06-10T09:17:39;4.37;;;3.60;;
6149;SDS011;3106;42.670;23.318;2023-06-10T09:20:08;4.97;;;3.47;;
6149;SDS011;3106;42.670;23.318;2023-06-10T09:22:36;6.03;;;3.83;;
6149;SDS011;3106;42.670;23.318;2023-06-10T09:25:04;12.60;;;3.53;;
6149;SDS011;3106;42.670;23.318;2023-06-10T09:27:32;6.20;;;4.63;;
6149;SDS011;3106;42.670;23.318;2023-06-10T09:29:59;6.40;;;4.70;;
6149;SDS011;3106;42.670;23.318;2023-06-10T09:32:26;5.37;;;4.57;;
6149;SDS011;3106;42.670;23.318;2023-06-10T09:34:54;5.23;;;4.63;;
6149;SDS011;3106;42.670;23.318;2023-06-10T09:37:21;8.40;;;4.90;;
6149;SDS011;3106;42.670;23.318;2023-06-10T09:42:33;8.23;;;4.97;;
6149;SDS011;3106;42.670;23.318;2023-06-10T09:45:01;8.80;;;5.30;;
6149;SDS011;3106;42.670;23.318;2023-06-10T09:47:28;6.90;;;5.03;;
6149;SDS011;3106;42.670;23.318;2023-06-10T09:49:55;10.93;;;4.87;;
6149;SDS011;3106;42.670;23.318;2023-06-10T09:52:22;9.80;;;4.60;;
6149;SDS011;3106;42.670;23.318;2023-06-10T09:54:49;15.77;;;4.87;;
6149;SDS011;3106;42.670;23.318;2023-06-10T09:57:18;9.90;;;4.27;;
6149;SDS011;3106;42.670;23.318;2023-06-10T09:59:45;7.60;;;3.97;;
6149;SDS011;3106;42.670;23.318;2023-06-10T10:02:13;3.90;;;3.23;;
6149;SDS011;3106;42.670;23.318;2023-06-10T10:04:41;8.13;;;4.40;;
6149;SDS011;3106;42.670;23.318;2023-06-10T10:07:08;3.87;;;3.37;;
6149;SDS011;3106;42.670;23.318;2023-06-10T10:09:35;7.40;;;3.03;;
6149;SDS011;3106;42.670;23.318;2023-06-10T10:12:02;5.67;;;3.00;;
6149;SDS011;3106;42.670;23.318;2023-06-10T10:14:35;5.30;;;3.83;;
6149;SDS011;3106;42.670;23.318;2023-06-10T10:17:04;8.13;;;4.17;;
6149;SDS011;3106;42.670;23.318;2023-06-10T10:19:33;4.77;;;4.20;;
6149;SDS011;3106;42.670;23.318;2023-06-10T10:22:06;7.57;;;4.47;;
6149;SDS011;3106;42.670;23.318;2023-06-10T10:24:36;18.90;;;4.90;;
6149;SDS011;3106;42.670;23.318;2023-06-10T10:27:07;6.37;;;4.13;;
6149;SDS011;3106;42.670;23.318;2023-06-10T10:29:41;4.57;;;4.10;;
6149;SDS011;3106;42.670;23.318;2023-06-10T10:32:12;6.20;;;4.60;;
6149;SDS011;3106;42.670;23.318;2023-06-10T10:34:42;4.80;;;4.30;;
6149;SDS011;3106;42.670;23.318;2023-06-10T10:37:17;8.70;;;4.27;;
6149;SDS011;3106;42.670;23.318;2023-06-10T10:39:44;8.40;;;4.70;;
6149;SDS011;3106;42.670;23.318;2023-06-10T10:42:11;11.27;;;4.17;;
6149;SDS011;3106;42.670;23.318;2023-06-10T10:44:39;14.63;;;5.07;;
6149;SDS011;3106;42.670;23.318;2023-06-10T10:47:08;4.90;;;4.33;;
6149;SDS011;3106;42.670;23.318;2023-06-10T10:49:37;14.60;;;4.23;;
6149;SDS011;3106;42.670;23.318;2023-06-10T10:52:09;26.03;;;5.43;;
6149;SDS011;3106;42.670;23.318;2023-06-10T10:54:39;29.43;;;5.00;;
6149;SDS011;3106;42.670;23.318;2023-06-10T10:57:10;4.70;;;4.13;;
6149;SDS011;3106;42.670;23.318;2023-06-10T10:59:45;5.03;;;4.13;;
6149;SDS011;3106;42.670;23.318;2023-06-10T11:02:17;19.60;;;4.50;;
6149;SDS011;3106;42.670;23.318;2023-06-10T11:04:45;6.27;;;3.87;;
6149;SDS011;3106;42.670;23.318;2023-06-10T11:07:13;6.27;;;4.03;;
6149;SDS011;3106;42.670;23.318;2023-06-10T11:12:24;7.07;;;4.30;;
6149;SDS011;3106;42.670;23.318;2023-06-10T11:14:54;6.47;;;4.40;;
6149;SDS011;3106;42.670;23.318;2023-06-10T11:17:21;9.57;;;4.80;;
6149;SDS011;3106;42.670;23.318;2023-06-10T11:19:48;35.90;;;5.20;;
6149;SDS011;3106;42.670;23.318;2023-06-10T11:22:16;9.97;;;4.73;;
6149;SDS011;3106;42.670;23.318;2023-06-10T11:24:46;8.63;;;3.97;;
6149;SDS011;3106;42.670;23.318;2023-06-10T11:27:14;9.03;;;4.70;;
6149;SDS011;3106;42.670;23.318;2023-06-10T11:32:43;7.93;;;4.40;;
6149;SDS011;3106;42.670;23.318;2023-06-10T11:35:10;9.53;;;4.23;;
6149;SDS011;3106;42.670;23.318;2023-06-10T11:37:38;5.50;;;4.30;;
6149;SDS011;3106;42.670;23.318;2023-06-10T11:40:05;5.23;;;4.67;;
6149;SDS011;3106;42.670;23.318;2023-06-10T11:42:38;5.70;;;4.37;;
6149;SDS011;3106;42.670;23.318;2023-06-10T11:45:08;9.13;;;4.57;;
6149;SDS011;3106;42.670;23.318;2023-06-10T11:47:35;11.43;;;5.67;;
6149;SDS011;3106;42.670;23.318;2023-06-10T11:50:02;7.20;;;5.70;;
6149;SDS011;3106;42.670;23.318;2023-06-10T11:52:30;27.90;;;6.03;;
6149;SDS011;3106;42.670;23.318;2023-06-10T11:54:58;8.10;;;4.90;;
6149;SDS011;3106;42.670;23.318;2023-06-10T11:57:25;23.40;;;5.67;;
6149;SDS011;3106;42.670;23.318;2023-06-10T11:59:52;20.87;;;6.03;;
6149;SDS011;3106;42.670;23.318;2023-06-10T12:02:20;6.13;;;4.87;;
6149;SDS011;3106;42.670;23.318;2023-06-10T12:04:47;9.47;;;4.97;;
6149;SDS011;3106;42.670;23.318;2023-06-10T12:07:17;9.53;;;4.90;;
6149;SDS011;3106;42.670;23.318;2023-06-10T12:09:45;10.13;;;5.50;;
6149;SDS011;3106;42.670;23.318;2023-06-10T12:12:12;43.47;;;8.03;;
6149;SDS011;3106;42.670;23.318;2023-06-10T12:14:51;48.90;;;8.33;;
6149;SDS011;3106;42.670;23.318;2023-06-10T12:17:34;12.50;;;4.50;;
6149;SDS011;3106;42.670;23.318;2023-06-10T12:20:03;12.83;;;5.60;;
6149;SDS011;3106;42.670;23.318;2023-06-10T12:22:35;5.17;;;4.20;;
6149;SDS011;3106;42.670;23.318;2023-06-10T12:25:03;7.07;;;4.00;;
6149;SDS011;3106;42.670;23.318;2023-06-10T12:27:31;10.40;;;3.83;;
6149;SDS011;3106;42.670;23.318;2023-06-10T12:29:59;5.97;;;3.63;;
6149;SDS011;3106;42.670;23.318;2023-06-10T12:32:37;6.43;;;4.00;;
6149;SDS011;3106;42.670;23.318;2023-06-10T12:35:06;11.03;;;4.80;;
6149;SDS011;3106;42.670;23.318;2023-06-10T12:37:34;6.33;;;3.93;;
6149;SDS011;3106;42.670;23.318;2023-06-10T12:40:02;5.80;;;3.97;;
6149;SDS011;3106;42.670;23.318;2023-06-10T12:42:30;7.77;;;3.87;;
6149;SDS011;3106;42.670;23.318;2023-06-10T12:44:59;5.63;;;4.37;;
6149;SDS011;3106;42.670;23.318;2023-06-10T12:47:29;8.90;;;4.20;;
6149;SDS011;3106;42.670;23.318;2023-06-10T12:50:01;5.40;;;4.30;;
6149;SDS011;3106;42.670;23.318;2023-06-10T12:52:29;5.13;;;3.97;;
6149;SDS011;3106;42.670;23.318;2023-06-10T12:54:57;4.93;;;4.20;;
6149;SDS011;3106;42.670;23.318;2023-06-10T12:57:25;6.60;;;4.70;;
6149;SDS011;3106;42.670;23.318;2023-06-10T12:59:52;7.40;;;4.27;;
6149;SDS011;3106;42.670;23.318;2023-06-10T13:02:19;19.63;;;4.20;;
6149;SDS011;3106;42.670;23.318;2023-06-10T13:04:48;9.67;;;8.27;;
6149;SDS011;3106;42.670;23.318;2023-06-10T13:07:16;5.97;;;5.27;;
6149;SDS011;3106;42.670;23.318;2023-06-10T13:09:44;6.80;;;4.40;;
6149;SDS011;3106;42.670;23.318;2023-06-10T13:12:13;6.93;;;3.93;;
6149;SDS011;3106;42.670;23.318;2023-06-10T13:14:42;6.57;;;4.00;;
6149;SDS011;3106;42.670;23.318;2023-06-10T13:17:09;11.00;;;4.30;;
6149;SDS011;3106;42.670;23.318;2023-06-10T13:19:36;4.27;;;3.80;;
6149;SDS011;3106;42.670;23.318;2023-06-10T13:22:03;5.80;;;3.50;;
6149;SDS011;3106;42.670;23.318;2023-06-10T13:24:31;13.47;;;5.23;;
6149;SDS011;3106;42.670;23.318;2023-06-10T13:26:57;8.53;;;4.80;;
6149;SDS011;3106;42.670;23.318;2023-06-10T13:29:24;20.90;;;5.27;;
6149;SDS011;3106;42.670;23.318;2023-06-10T13:31:51;7.10;;;4.50;;
6149;SDS011;3106;42.670;23.318;2023-06-10T13:34:18;12.73;;;5.30;;
6149;SDS011;3106;42.670;23.318;2023-06-10T13:36:44;48.17;;;6.73;;
6149;SDS011;3106;42.670;23.318;2023-06-10T13:39:11;11.37;;;4.97;;
6149;SDS011;3106;42.670;23.318;2023-06-10T13:41:41;9.43;;;4.67;;
6149;SDS011;3106;42.670;23.318;2023-06-10T13:44:07;11.33;;;5.80;;
6149;SDS011;3106;42.670;23.318;2023-06-10T13:46:34;11.33;;;4.90;;
6149;SDS011;3106;42.670;23.318;2023-06-10T13:49:01;8.50;;;4.93;;
6149;SDS011;3106;42.670;23.318;2023-06-10T13:51:28;25.20;;;5.70;;
6149;SDS011;3106;42.670;23.318;2023-06-10T13:53:55;14.90;;;5.30;;
6149;SDS011;3106;42.670;23.318;2023-06-10T13:56:21;18.37;;;5.93;;
6149;SDS011;3106;42.670;23.318;2023-06-10T13:58:49;7.83;;;5.13;;
6149;SDS011;3106;42.670;23.318;2023-06-10T14:01:16;11.87;;;5.57;;
6149;SDS011;3106;42.670;23.318;2023-06-10T14:03:43;13.20;;;5.17;;
6149;SDS011;3106;42.670;23.318;2023-06-10T14:06:10;9.77;;;4.90;;
6149;SDS011;3106;42.670;23.318;2023-06-10T14:08:38;6.27;;;5.00;;
6149;SDS011;3106;42.670;23.318;2023-06-10T14:11:06;8.40;;;5.87;;
6149;SDS011;3106;42.670;23.318;2023-06-10T14:13:33;8.73;;;5.87;;
6149;SDS011;3106;42.670;23.318;2023-06-10T14:16:01;7.47;;;5.10;;
6149;SDS011;3106;42.670;23.318;2023-06-10T14:18:28;9.43;;;5.20;;
6149;SDS011;3106;42.670;23.318;2023-06-10T14:20:55;7.00;;;5.27;;
6149;SDS011;3106;42.670;23.318;2023-06-10T14:23:22;8.93;;;5.50;;
6149;SDS011;3106;42.670;23.318;2023-06-10T14:25:49;7.97;;;5.20;;
6149;SDS011;3106;42.670;23.318;2023-06-10T14:28:16;7.67;;;5.10;;
6149;SDS011;3106;42.670;23.318;2023-06-10T14:30:44;13.87;;;5.20;;
6149;SDS011;3106;42.670;23.318;2023-06-10T14:33:12;7.00;;;4.73;;
6149;SDS011;3106;42.670;23.318;2023-06-10T14:35:39;8.60;;;5.13;;
6149;SDS011;3106;42.670;23.318;2023-06-10T14:38:07;10.60;;;5.40;;
6149;SDS011;3106;42.670;23.318;2023-06-10T14:40:34;8.00;;;5.27;;
6149;SDS011;3106;42.670;23.318;2023-06-10T14:43:01;7.07;;;4.77;;
6149;SDS011;3106;42.670;23.318;2023-06-10T14:45:34;5.23;;;4.70;;
6149;SDS011;3106;42.670;23.318;2023-06-10T14:48:01;4.70;;;4.07;;
6149;SDS011;3106;42.670;23.318;2023-06-10T14:50:29;7.70;;;4.80;;
6149;SDS011;3106;42.670;23.318;2023-06-10T14:52:57;9.47;;;4.83;;
6149;SDS011;3106;42.670;23.318;2023-06-10T14:55:24;6.83;;;4.20;;
6149;SDS011;3106;42.670;23.318;2023-06-10T14:57:51;7.90;;;4.10;;
6149;SDS011;3106;42.670;23.318;2023-06-10T15:00:17;6.33;;;4.07;;